Главная страница
METAR-TAF:

METAR-TAF

Аэропорты :

Вроцлавский аэропорт имени Коперника

Вроцлав, Польша

широта: 51-06N, долгота: 016-53E, высота над уровнем моря: 120 м

Текущие метеонаблюдения

Эта сводка был подготовлена 11 минут назад, в 00:00 UTC
Ветер 5 Узел от северо-восточный
Температура 16°C
Влажность 68%
Давление 1022 hPa
Видимость 10 км и более
Нет облачности ниже 1500 м, и нет кучево-дождевой облачности

METAR: EPWR 240000Z 05005KT CAVOK 16/10 Q1022

Время: 02:11 (00:11 UTC)

Прогноз

Эта сводка был подготовлена 41 минут назад, в 23:30 UTC
Прогноз действительный с 24-го 00 UTC до 24-го 24 UTC
Ветер 8 Узел от восточно-северо-восточный
Видимость 10 км и более
Нет облачности ниже 1500 м, и нет кучево-дождевой облачности
временами
С 24-го 10 UTC до 24-го 16 UTC
Ветер 15 Узел от восточный с порывами до 25 Узел

TAF: EPWR 232330Z 2400/2424 07008KT CAVOK TEMPO 2410/2416 09015G25KT

Метеонаблюдения и прогнозы для более 4000 аэропортов (сводки METAR и TAF).

Имеющиеся станции представлены на карте желтыми и красными точками.

Чтобы увидеть название станции, наведите на нее мышь.

Затем щелкните, чтобы увидеть метеонаблюдения и метеопрогнозы.

Управление картой: чтобы увеличить масштаб, щелкните зеленые кнопки с черным крестиком; чтобы уменьшить масштаб, щелкните зеленую кнопку с тире; для просмотра соседних карт щелкайте зеленые стрелки.


METAR-TAF: